sensor_id;sensor_type;location;lat;lon;timestamp;P1;durP1;ratioP1;P2;durP2;ratioP2
7511;SDS011;9999;48.780;9.146;2022-12-11T00:00:26;7.77;;;4.40;;
7511;SDS011;9999;48.780;9.146;2022-12-11T00:02:53;6.07;;;4.03;;
7511;SDS011;9999;48.780;9.146;2022-12-11T00:05:20;10.83;;;4.33;;
7511;SDS011;9999;48.780;9.146;2022-12-11T00:07:48;8.33;;;5.73;;
7511;SDS011;9999;48.780;9.146;2022-12-11T00:10:15;9.10;;;3.80;;
7511;SDS011;9999;48.780;9.146;2022-12-11T00:12:43;7.00;;;4.93;;
7511;SDS011;9999;48.780;9.146;2022-12-11T00:15:10;7.27;;;5.00;;
7511;SDS011;9999;48.780;9.146;2022-12-11T00:17:36;8.17;;;4.33;;
7511;SDS011;9999;48.780;9.146;2022-12-11T00:20:04;4.33;;;2.80;;
7511;SDS011;9999;48.780;9.146;2022-12-11T00:22:32;7.50;;;3.83;;
7511;SDS011;9999;48.780;9.146;2022-12-11T00:24:59;6.83;;;4.40;;
7511;SDS011;9999;48.780;9.146;2022-12-11T00:27:25;4.03;;;3.00;;
7511;SDS011;9999;48.780;9.146;2022-12-11T00:29:53;7.60;;;4.77;;
7511;SDS011;9999;48.780;9.146;2022-12-11T00:32:20;5.30;;;3.97;;
7511;SDS011;9999;48.780;9.146;2022-12-11T00:34:47;7.00;;;4.30;;
7511;SDS011;9999;48.780;9.146;2022-12-11T00:37:14;9.97;;;4.83;;
7511;SDS011;9999;48.780;9.146;2022-12-11T00:39:41;9.83;;;4.40;;
7511;SDS011;9999;48.780;9.146;2022-12-11T00:42:08;7.67;;;4.33;;
7511;SDS011;9999;48.780;9.146;2022-12-11T00:44:35;7.97;;;5.23;;
7511;SDS011;9999;48.780;9.146;2022-12-11T00:47:03;7.30;;;4.13;;
7511;SDS011;9999;48.780;9.146;2022-12-11T00:49:30;5.87;;;3.60;;
7511;SDS011;9999;48.780;9.146;2022-12-11T00:51:57;5.53;;;4.60;;
7511;SDS011;9999;48.780;9.146;2022-12-11T00:54:23;6.00;;;4.50;;
7511;SDS011;9999;48.780;9.146;2022-12-11T00:56:50;11.63;;;5.93;;
7511;SDS011;9999;48.780;9.146;2022-12-11T00:59:18;7.97;;;5.30;;
7511;SDS011;9999;48.780;9.146;2022-12-11T01:01:45;9.93;;;4.90;;
7511;SDS011;9999;48.780;9.146;2022-12-11T01:04:13;7.23;;;4.60;;
7511;SDS011;9999;48.780;9.146;2022-12-11T01:06:40;10.83;;;4.40;;
7511;SDS011;9999;48.780;9.146;2022-12-11T01:09:06;8.37;;;4.43;;
7511;SDS011;9999;48.780;9.146;2022-12-11T01:11:51;7.50;;;4.73;;
7511;SDS011;9999;48.780;9.146;2022-12-11T01:14:18;9.87;;;5.30;;
7511;SDS011;9999;48.780;9.146;2022-12-11T01:16:45;8.27;;;3.77;;
7511;SDS011;9999;48.780;9.146;2022-12-11T01:19:13;4.90;;;3.87;;
7511;SDS011;9999;48.780;9.146;2022-12-11T01:21:40;8.50;;;5.63;;
7511;SDS011;9999;48.780;9.146;2022-12-11T01:24:06;6.70;;;4.67;;
7511;SDS011;9999;48.780;9.146;2022-12-11T01:26:33;8.70;;;5.57;;
7511;SDS011;9999;48.780;9.146;2022-12-11T01:29:00;9.33;;;4.73;;
7511;SDS011;9999;48.780;9.146;2022-12-11T01:31:27;9.07;;;4.80;;
7511;SDS011;9999;48.780;9.146;2022-12-11T01:33:55;7.40;;;4.60;;
7511;SDS011;9999;48.780;9.146;2022-12-11T01:36:23;6.47;;;4.33;;
7511;SDS011;9999;48.780;9.146;2022-12-11T01:38:50;8.53;;;4.50;;
7511;SDS011;9999;48.780;9.146;2022-12-11T01:41:18;10.50;;;4.30;;
7511;SDS011;9999;48.780;9.146;2022-12-11T01:43:55;6.57;;;3.93;;
7511;SDS011;9999;48.780;9.146;2022-12-11T01:46:26;8.23;;;5.10;;
7511;SDS011;9999;48.780;9.146;2022-12-11T01:48:54;8.60;;;4.47;;
7511;SDS011;9999;48.780;9.146;2022-12-11T01:51:23;12.17;;;5.13;;
7511;SDS011;9999;48.780;9.146;2022-12-11T01:53:52;7.13;;;4.27;;
7511;SDS011;9999;48.780;9.146;2022-12-11T01:56:23;9.60;;;5.30;;
7511;SDS011;9999;48.780;9.146;2022-12-11T01:58:52;5.90;;;5.03;;
7511;SDS011;9999;48.780;9.146;2022-12-11T02:01:25;11.67;;;5.83;;
7511;SDS011;9999;48.780;9.146;2022-12-11T02:03:57;12.40;;;7.83;;
7511;SDS011;9999;48.780;9.146;2022-12-11T02:06:30;8.43;;;4.90;;
7511;SDS011;9999;48.780;9.146;2022-12-11T02:08:59;10.87;;;5.57;;
7511;SDS011;9999;48.780;9.146;2022-12-11T02:11:28;8.43;;;4.83;;
7511;SDS011;9999;48.780;9.146;2022-12-11T02:14:04;8.53;;;5.47;;
7511;SDS011;9999;48.780;9.146;2022-12-11T02:16:38;9.50;;;5.37;;
7511;SDS011;9999;48.780;9.146;2022-12-11T02:19:14;7.17;;;5.43;;
7511;SDS011;9999;48.780;9.146;2022-12-11T02:21:52;8.87;;;4.63;;
7511;SDS011;9999;48.780;9.146;2022-12-11T02:24:31;9.50;;;5.60;;
7511;SDS011;9999;48.780;9.146;2022-12-11T02:27:20;6.77;;;3.40;;
7511;SDS011;9999;48.780;9.146;2022-12-11T02:29:56;10.70;;;3.73;;
7511;SDS011;9999;48.780;9.146;2022-12-11T02:32:29;10.27;;;5.13;;
7511;SDS011;9999;48.780;9.146;2022-12-11T02:35:01;7.50;;;4.93;;
7511;SDS011;9999;48.780;9.146;2022-12-11T02:37:33;7.40;;;4.87;;
7511;SDS011;9999;48.780;9.146;2022-12-11T02:40:03;6.80;;;4.93;;
7511;SDS011;9999;48.780;9.146;2022-12-11T02:42:35;12.60;;;5.80;;
7511;SDS011;9999;48.780;9.146;2022-12-11T02:45:07;8.90;;;4.87;;
7511;SDS011;9999;48.780;9.146;2022-12-11T02:47:36;9.03;;;5.33;;
7511;SDS011;9999;48.780;9.146;2022-12-11T02:50:05;7.27;;;4.47;;
7511;SDS011;9999;48.780;9.146;2022-12-11T02:52:35;8.77;;;4.97;;
7511;SDS011;9999;48.780;9.146;2022-12-11T02:55:05;8.67;;;5.13;;
7511;SDS011;9999;48.780;9.146;2022-12-11T02:57:35;8.57;;;4.03;;
7511;SDS011;9999;48.780;9.146;2022-12-11T03:00:09;6.40;;;3.83;;
7511;SDS011;9999;48.780;9.146;2022-12-11T03:02:37;5.83;;;3.43;;
7511;SDS011;9999;48.780;9.146;2022-12-11T03:05:04;6.53;;;4.77;;
7511;SDS011;9999;48.780;9.146;2022-12-11T03:07:33;5.20;;;4.20;;
7511;SDS011;9999;48.780;9.146;2022-12-11T03:10:03;6.70;;;4.07;;
7511;SDS011;9999;48.780;9.146;2022-12-11T03:12:32;6.90;;;4.93;;
7511;SDS011;9999;48.780;9.146;2022-12-11T03:15:03;7.30;;;4.80;;
7511;SDS011;9999;48.780;9.146;2022-12-11T03:17:34;9.00;;;5.43;;
7511;SDS011;9999;48.780;9.146;2022-12-11T03:20:09;9.40;;;6.03;;
7511;SDS011;9999;48.780;9.146;2022-12-11T03:22:42;5.63;;;4.30;;
7511;SDS011;9999;48.780;9.146;2022-12-11T03:25:14;6.23;;;4.50;;
7511;SDS011;9999;48.780;9.146;2022-12-11T03:27:46;6.43;;;4.20;;
7511;SDS011;9999;48.780;9.146;2022-12-11T03:30:20;6.57;;;4.17;;
7511;SDS011;9999;48.780;9.146;2022-12-11T03:32:50;4.53;;;3.73;;
7511;SDS011;9999;48.780;9.146;2022-12-11T03:35:21;5.23;;;3.50;;
7511;SDS011;9999;48.780;9.146;2022-12-11T03:37:51;6.07;;;4.03;;
7511;SDS011;9999;48.780;9.146;2022-12-11T03:40:20;6.57;;;4.60;;
7511;SDS011;9999;48.780;9.146;2022-12-11T03:42:51;5.27;;;4.33;;
7511;SDS011;9999;48.780;9.146;2022-12-11T03:45:19;4.67;;;4.00;;
7511;SDS011;9999;48.780;9.146;2022-12-11T03:47:47;7.53;;;4.60;;
7511;SDS011;9999;48.780;9.146;2022-12-11T03:50:18;11.70;;;5.40;;
7511;SDS011;9999;48.780;9.146;2022-12-11T03:52:47;6.47;;;3.60;;
7511;SDS011;9999;48.780;9.146;2022-12-11T03:55:16;7.83;;;5.00;;
7511;SDS011;9999;48.780;9.146;2022-12-11T03:57:44;6.43;;;3.67;;
7511;SDS011;9999;48.780;9.146;2022-12-11T04:00:12;6.67;;;4.37;;
7511;SDS011;9999;48.780;9.146;2022-12-11T04:02:41;12.00;;;5.20;;
7511;SDS011;9999;48.780;9.146;2022-12-11T04:05:10;5.17;;;3.50;;
7511;SDS011;9999;48.780;9.146;2022-12-11T04:07:37;5.33;;;4.33;;
7511;SDS011;9999;48.780;9.146;2022-12-11T04:10:04;5.03;;;3.40;;
7511;SDS011;9999;48.780;9.146;2022-12-11T04:12:31;5.30;;;4.33;;
7511;SDS011;9999;48.780;9.146;2022-12-11T04:14:58;6.83;;;3.83;;
7511;SDS011;9999;48.780;9.146;2022-12-11T04:17:26;7.97;;;4.77;;
7511;SDS011;9999;48.780;9.146;2022-12-11T04:20:12;7.67;;;4.30;;
7511;SDS011;9999;48.780;9.146;2022-12-11T04:22:59;6.87;;;4.13;;
7511;SDS011;9999;48.780;9.146;2022-12-11T04:25:45;4.87;;;3.70;;
7511;SDS011;9999;48.780;9.146;2022-12-11T04:28:12;8.53;;;4.43;;
7511;SDS011;9999;48.780;9.146;2022-12-11T04:30:39;8.90;;;5.47;;
7511;SDS011;9999;48.780;9.146;2022-12-11T04:33:06;4.57;;;4.17;;
7511;SDS011;9999;48.780;9.146;2022-12-11T04:35:34;4.70;;;3.30;;
7511;SDS011;9999;48.780;9.146;2022-12-11T04:38:01;4.57;;;4.03;;
7511;SDS011;9999;48.780;9.146;2022-12-11T04:40:28;9.33;;;4.20;;
7511;SDS011;9999;48.780;9.146;2022-12-11T04:42:55;11.67;;;4.43;;
7511;SDS011;9999;48.780;9.146;2022-12-11T04:45:22;8.10;;;4.27;;
7511;SDS011;9999;48.780;9.146;2022-12-11T04:47:48;5.77;;;4.20;;
7511;SDS011;9999;48.780;9.146;2022-12-11T04:50:15;12.27;;;3.40;;
7511;SDS011;9999;48.780;9.146;2022-12-11T04:52:44;5.43;;;3.87;;
7511;SDS011;9999;48.780;9.146;2022-12-11T04:55:11;6.40;;;4.20;;
7511;SDS011;9999;48.780;9.146;2022-12-11T04:57:39;5.30;;;3.67;;
7511;SDS011;9999;48.780;9.146;2022-12-11T05:00:07;4.37;;;3.97;;
7511;SDS011;9999;48.780;9.146;2022-12-11T05:02:36;6.63;;;3.97;;
7511;SDS011;9999;48.780;9.146;2022-12-11T05:05:05;6.63;;;4.37;;
7511;SDS011;9999;48.780;9.146;2022-12-11T05:07:34;8.33;;;4.47;;
7511;SDS011;9999;48.780;9.146;2022-12-11T05:10:04;7.20;;;4.70;;
7511;SDS011;9999;48.780;9.146;2022-12-11T05:12:32;10.67;;;4.40;;
7511;SDS011;9999;48.780;9.146;2022-12-11T05:14:58;5.40;;;3.90;;
7511;SDS011;9999;48.780;9.146;2022-12-11T05:17:25;11.93;;;5.80;;
7511;SDS011;9999;48.780;9.146;2022-12-11T05:19:52;9.30;;;5.00;;
7511;SDS011;9999;48.780;9.146;2022-12-11T05:22:19;12.40;;;4.13;;
7511;SDS011;9999;48.780;9.146;2022-12-11T05:24:46;5.77;;;3.40;;
7511;SDS011;9999;48.780;9.146;2022-12-11T05:27:14;5.27;;;3.67;;
7511;SDS011;9999;48.780;9.146;2022-12-11T05:29:41;4.23;;;3.80;;
7511;SDS011;9999;48.780;9.146;2022-12-11T05:32:07;6.90;;;4.67;;
7511;SDS011;9999;48.780;9.146;2022-12-11T05:34:34;6.97;;;3.97;;
7511;SDS011;9999;48.780;9.146;2022-12-11T05:37:01;5.90;;;3.97;;
7511;SDS011;9999;48.780;9.146;2022-12-11T05:39:28;7.97;;;3.53;;
7511;SDS011;9999;48.780;9.146;2022-12-11T05:41:55;7.40;;;3.87;;
7511;SDS011;9999;48.780;9.146;2022-12-11T05:44:23;4.20;;;3.33;;
7511;SDS011;9999;48.780;9.146;2022-12-11T05:46:51;8.23;;;4.27;;
7511;SDS011;9999;48.780;9.146;2022-12-11T05:49:18;7.13;;;4.20;;
7511;SDS011;9999;48.780;9.146;2022-12-11T05:51:46;7.63;;;3.23;;
7511;SDS011;9999;48.780;9.146;2022-12-11T05:54:13;10.33;;;4.03;;
7511;SDS011;9999;48.780;9.146;2022-12-11T05:56:40;6.27;;;3.77;;
7511;SDS011;9999;48.780;9.146;2022-12-11T05:59:06;8.50;;;5.73;;
7511;SDS011;9999;48.780;9.146;2022-12-11T06:01:36;7.87;;;3.63;;
7511;SDS011;9999;48.780;9.146;2022-12-11T06:04:04;6.87;;;4.67;;
7511;SDS011;9999;48.780;9.146;2022-12-11T06:06:32;4.50;;;3.43;;
7511;SDS011;9999;48.780;9.146;2022-12-11T06:09:01;6.63;;;4.77;;
7511;SDS011;9999;48.780;9.146;2022-12-11T06:11:29;8.73;;;5.73;;
7511;SDS011;9999;48.780;9.146;2022-12-11T06:13:58;9.23;;;5.40;;
7511;SDS011;9999;48.780;9.146;2022-12-11T06:16:26;4.23;;;3.33;;
7511;SDS011;9999;48.780;9.146;2022-12-11T06:18:54;6.13;;;3.53;;
7511;SDS011;9999;48.780;9.146;2022-12-11T06:21:21;7.10;;;5.20;;
7511;SDS011;9999;48.780;9.146;2022-12-11T06:23:50;4.47;;;3.13;;
7511;SDS011;9999;48.780;9.146;2022-12-11T06:26:18;8.57;;;4.83;;
7511;SDS011;9999;48.780;9.146;2022-12-11T06:28:46;8.13;;;5.53;;
7511;SDS011;9999;48.780;9.146;2022-12-11T06:31:13;5.27;;;3.97;;
7511;SDS011;9999;48.780;9.146;2022-12-11T06:33:40;6.73;;;4.00;;
7511;SDS011;9999;48.780;9.146;2022-12-11T06:36:09;9.13;;;4.33;;
7511;SDS011;9999;48.780;9.146;2022-12-11T06:38:37;10.23;;;5.13;;
7511;SDS011;9999;48.780;9.146;2022-12-11T06:41:04;8.33;;;4.87;;
7511;SDS011;9999;48.780;9.146;2022-12-11T06:43:32;7.03;;;4.37;;
7511;SDS011;9999;48.780;9.146;2022-12-11T06:46:02;6.70;;;4.73;;
7511;SDS011;9999;48.780;9.146;2022-12-11T06:48:29;8.70;;;5.40;;
7511;SDS011;9999;48.780;9.146;2022-12-11T06:50:56;7.90;;;4.77;;
7511;SDS011;9999;48.780;9.146;2022-12-11T06:53:25;5.80;;;4.20;;
7511;SDS011;9999;48.780;9.146;2022-12-11T06:55:51;5.73;;;4.80;;
7511;SDS011;9999;48.780;9.146;2022-12-11T06:58:18;7.47;;;4.40;;
7511;SDS011;9999;48.780;9.146;2022-12-11T07:00:45;6.93;;;4.40;;
7511;SDS011;9999;48.780;9.146;2022-12-11T07:03:12;9.90;;;5.43;;
7511;SDS011;9999;48.780;9.146;2022-12-11T07:05:39;7.70;;;3.93;;
7511;SDS011;9999;48.780;9.146;2022-12-11T07:08:06;6.00;;;4.50;;
7511;SDS011;9999;48.780;9.146;2022-12-11T07:10:34;11.23;;;6.47;;
7511;SDS011;9999;48.780;9.146;2022-12-11T07:13:00;8.97;;;5.50;;
7511;SDS011;9999;48.780;9.146;2022-12-11T07:15:27;7.00;;;5.33;;
7511;SDS011;9999;48.780;9.146;2022-12-11T07:17:54;7.90;;;5.20;;
7511;SDS011;9999;48.780;9.146;2022-12-11T07:20:21;9.00;;;4.20;;
7511;SDS011;9999;48.780;9.146;2022-12-11T07:22:48;5.83;;;3.27;;
7511;SDS011;9999;48.780;9.146;2022-12-11T07:25:15;8.80;;;6.13;;
7511;SDS011;9999;48.780;9.146;2022-12-11T07:27:43;9.07;;;4.77;;
7511;SDS011;9999;48.780;9.146;2022-12-11T07:30:11;5.50;;;4.00;;
7511;SDS011;9999;48.780;9.146;2022-12-11T07:32:39;7.33;;;4.63;;
7511;SDS011;9999;48.780;9.146;2022-12-11T07:35:06;6.40;;;3.57;;
7511;SDS011;9999;48.780;9.146;2022-12-11T07:37:34;6.53;;;3.53;;
7511;SDS011;9999;48.780;9.146;2022-12-11T07:40:01;5.57;;;4.97;;
7511;SDS011;9999;48.780;9.146;2022-12-11T07:42:28;5.83;;;3.70;;
7511;SDS011;9999;48.780;9.146;2022-12-11T07:44:56;8.40;;;4.57;;
7511;SDS011;9999;48.780;9.146;2022-12-11T07:47:23;7.03;;;3.87;;
7511;SDS011;9999;48.780;9.146;2022-12-11T07:49:50;5.00;;;4.03;;
7511;SDS011;9999;48.780;9.146;2022-12-11T07:52:17;8.70;;;4.90;;
7511;SDS011;9999;48.780;9.146;2022-12-11T07:54:43;8.67;;;5.23;;
7511;SDS011;9999;48.780;9.146;2022-12-11T07:57:10;4.60;;;3.43;;
7511;SDS011;9999;48.780;9.146;2022-12-11T07:59:37;8.50;;;4.60;;
7511;SDS011;9999;48.780;9.146;2022-12-11T08:02:05;8.80;;;3.80;;
7511;SDS011;9999;48.780;9.146;2022-12-11T08:04:32;5.67;;;3.57;;
7511;SDS011;9999;48.780;9.146;2022-12-11T08:06:59;9.10;;;4.47;;
7511;SDS011;9999;48.780;9.146;2022-12-11T08:09:25;7.03;;;3.80;;
7511;SDS011;9999;48.780;9.146;2022-12-11T08:11:52;6.80;;;4.10;;
7511;SDS011;9999;48.780;9.146;2022-12-11T08:14:19;8.00;;;5.43;;
7511;SDS011;9999;48.780;9.146;2022-12-11T08:16:46;8.77;;;3.70;;
7511;SDS011;9999;48.780;9.146;2022-12-11T08:19:16;11.07;;;5.43;;
7511;SDS011;9999;48.780;9.146;2022-12-11T08:21:43;6.80;;;4.13;;
7511;SDS011;9999;48.780;9.146;2022-12-11T08:24:09;8.27;;;4.70;;
7511;SDS011;9999;48.780;9.146;2022-12-11T08:26:36;9.83;;;4.83;;
7511;SDS011;9999;48.780;9.146;2022-12-11T08:29:03;7.47;;;4.33;;
7511;SDS011;9999;48.780;9.146;2022-12-11T08:31:31;8.17;;;4.33;;
7511;SDS011;9999;48.780;9.146;2022-12-11T08:33:58;10.10;;;5.33;;
7511;SDS011;9999;48.780;9.146;2022-12-11T08:36:27;6.97;;;3.53;;
7511;SDS011;9999;48.780;9.146;2022-12-11T08:38:54;9.07;;;4.47;;
7511;SDS011;9999;48.780;9.146;2022-12-11T08:41:22;10.80;;;5.10;;
7511;SDS011;9999;48.780;9.146;2022-12-11T08:43:50;7.63;;;4.57;;
7511;SDS011;9999;48.780;9.146;2022-12-11T08:46:19;5.10;;;3.80;;
7511;SDS011;9999;48.780;9.146;2022-12-11T08:48:47;8.57;;;5.17;;
7511;SDS011;9999;48.780;9.146;2022-12-11T08:51:15;7.37;;;5.50;;
7511;SDS011;9999;48.780;9.146;2022-12-11T08:53:46;10.97;;;4.03;;
7511;SDS011;9999;48.780;9.146;2022-12-11T08:56:13;10.23;;;4.90;;
7511;SDS011;9999;48.780;9.146;2022-12-11T08:58:42;6.63;;;4.37;;
7511;SDS011;9999;48.780;9.146;2022-12-11T09:01:10;11.47;;;4.77;;
7511;SDS011;9999;48.780;9.146;2022-12-11T09:03:39;7.37;;;4.27;;
7511;SDS011;9999;48.780;9.146;2022-12-11T09:06:06;8.67;;;4.97;;
7511;SDS011;9999;48.780;9.146;2022-12-11T09:08:35;5.37;;;3.40;;
7511;SDS011;9999;48.780;9.146;2022-12-11T09:11:04;8.07;;;4.57;;
7511;SDS011;9999;48.780;9.146;2022-12-11T09:13:32;5.13;;;3.20;;
7511;SDS011;9999;48.780;9.146;2022-12-11T09:15:59;5.83;;;3.77;;
7511;SDS011;9999;48.780;9.146;2022-12-11T09:18:28;6.03;;;4.20;;
7511;SDS011;9999;48.780;9.146;2022-12-11T09:20:58;10.40;;;4.73;;
7511;SDS011;9999;48.780;9.146;2022-12-11T09:23:26;7.37;;;5.27;;
7511;SDS011;9999;48.780;9.146;2022-12-11T09:25:53;6.90;;;4.17;;
7511;SDS011;9999;48.780;9.146;2022-12-11T09:28:21;9.07;;;5.23;;
7511;SDS011;9999;48.780;9.146;2022-12-11T09:30:48;6.47;;;4.50;;
7511;SDS011;9999;48.780;9.146;2022-12-11T09:33:15;5.30;;;4.07;;
7511;SDS011;9999;48.780;9.146;2022-12-11T09:35:42;10.63;;;6.20;;
7511;SDS011;9999;48.780;9.146;2022-12-11T09:38:09;7.90;;;4.23;;
7511;SDS011;9999;48.780;9.146;2022-12-11T09:40:38;10.40;;;4.87;;
7511;SDS011;9999;48.780;9.146;2022-12-11T09:43:08;11.77;;;6.40;;
7511;SDS011;9999;48.780;9.146;2022-12-11T09:45:45;10.93;;;5.17;;
7511;SDS011;9999;48.780;9.146;2022-12-11T09:48:12;10.67;;;5.90;;
7511;SDS011;9999;48.780;9.146;2022-12-11T09:50:46;9.37;;;5.40;;
7511;SDS011;9999;48.780;9.146;2022-12-11T09:53:17;8.33;;;4.73;;
7511;SDS011;9999;48.780;9.146;2022-12-11T09:55:48;10.57;;;5.13;;
7511;SDS011;9999;48.780;9.146;2022-12-11T09:58:21;8.40;;;4.20;;
7511;SDS011;9999;48.780;9.146;2022-12-11T10:00:58;6.53;;;4.53;;
7511;SDS011;9999;48.780;9.146;2022-12-11T10:03:38;7.10;;;4.83;;
7511;SDS011;9999;48.780;9.146;2022-12-11T10:06:22;5.50;;;3.63;;
7511;SDS011;9999;48.780;9.146;2022-12-11T10:08:58;7.40;;;3.87;;
7511;SDS011;9999;48.780;9.146;2022-12-11T10:11:35;6.67;;;4.50;;
7511;SDS011;9999;48.780;9.146;2022-12-11T10:14:11;4.93;;;4.07;;
7511;SDS011;9999;48.780;9.146;2022-12-11T10:16:45;9.20;;;5.63;;
7511;SDS011;9999;48.780;9.146;2022-12-11T10:19:16;7.83;;;4.23;;
7511;SDS011;9999;48.780;9.146;2022-12-11T10:21:46;4.97;;;3.87;;
7511;SDS011;9999;48.780;9.146;2022-12-11T10:24:15;9.57;;;3.97;;
7511;SDS011;9999;48.780;9.146;2022-12-11T10:26:47;7.20;;;4.43;;
7511;SDS011;9999;48.780;9.146;2022-12-11T10:29:20;6.73;;;4.37;;
7511;SDS011;9999;48.780;9.146;2022-12-11T10:31:49;7.83;;;5.43;;
7511;SDS011;9999;48.780;9.146;2022-12-11T10:34:20;4.97;;;3.57;;
7511;SDS011;9999;48.780;9.146;2022-12-11T10:36:54;9.63;;;4.40;;
7511;SDS011;9999;48.780;9.146;2022-12-11T10:39:21;8.27;;;5.17;;
7511;SDS011;9999;48.780;9.146;2022-12-11T10:41:49;8.03;;;4.30;;
7511;SDS011;9999;48.780;9.146;2022-12-11T10:44:17;5.73;;;5.13;;
7511;SDS011;9999;48.780;9.146;2022-12-11T10:46:46;7.47;;;5.07;;
7511;SDS011;9999;48.780;9.146;2022-12-11T10:49:23;5.73;;;4.40;;
7511;SDS011;9999;48.780;9.146;2022-12-11T10:51:51;5.90;;;4.20;;
7511;SDS011;9999;48.780;9.146;2022-12-11T10:54:26;7.20;;;4.17;;
7511;SDS011;9999;48.780;9.146;2022-12-11T10:56:57;8.37;;;4.40;;
7511;SDS011;9999;48.780;9.146;2022-12-11T10:59:27;9.27;;;5.00;;
7511;SDS011;9999;48.780;9.146;2022-12-11T11:01:59;8.37;;;4.60;;
7511;SDS011;9999;48.780;9.146;2022-12-11T11:04:28;6.50;;;4.53;;
7511;SDS011;9999;48.780;9.146;2022-12-11T11:07:00;4.90;;;3.00;;
7511;SDS011;9999;48.780;9.146;2022-12-11T11:09:29;4.80;;;3.30;;
7511;SDS011;9999;48.780;9.146;2022-12-11T11:11:58;9.73;;;4.63;;
7511;SDS011;9999;48.780;9.146;2022-12-11T11:14:25;8.23;;;4.90;;
7511;SDS011;9999;48.780;9.146;2022-12-11T11:16:54;8.47;;;4.23;;
7511;SDS011;9999;48.780;9.146;2022-12-11T11:19:23;8.67;;;5.03;;
7511;SDS011;9999;48.780;9.146;2022-12-11T11:21:54;8.03;;;4.97;;
7511;SDS011;9999;48.780;9.146;2022-12-11T11:24:24;7.47;;;5.40;;
7511;SDS011;9999;48.780;9.146;2022-12-11T11:26:54;7.60;;;5.00;;
7511;SDS011;9999;48.780;9.146;2022-12-11T11:29:23;7.60;;;3.77;;
7511;SDS011;9999;48.780;9.146;2022-12-11T11:31:54;6.67;;;3.80;;
7511;SDS011;9999;48.780;9.146;2022-12-11T11:34:21;12.77;;;6.63;;
7511;SDS011;9999;48.780;9.146;2022-12-11T11:36:56;6.87;;;5.40;;
7511;SDS011;9999;48.780;9.146;2022-12-11T11:39:30;12.20;;;6.50;;
7511;SDS011;9999;48.780;9.146;2022-12-11T11:42:03;14.43;;;6.20;;
7511;SDS011;9999;48.780;9.146;2022-12-11T11:44:36;11.40;;;6.83;;
7511;SDS011;9999;48.780;9.146;2022-12-11T11:47:08;9.30;;;6.00;;
7511;SDS011;9999;48.780;9.146;2022-12-11T11:49:48;11.10;;;5.07;;
7511;SDS011;9999;48.780;9.146;2022-12-11T11:52:23;11.83;;;6.00;;
7511;SDS011;9999;48.780;9.146;2022-12-11T11:54:55;8.37;;;5.93;;
7511;SDS011;9999;48.780;9.146;2022-12-11T11:57:34;11.73;;;5.93;;
7511;SDS011;9999;48.780;9.146;2022-12-11T12:00:13;11.07;;;6.17;;
7511;SDS011;9999;48.780;9.146;2022-12-11T12:02:44;10.20;;;4.70;;
7511;SDS011;9999;48.780;9.146;2022-12-11T12:05:13;9.53;;;6.03;;
7511;SDS011;9999;48.780;9.146;2022-12-11T12:07:43;11.80;;;6.17;;
7511;SDS011;9999;48.780;9.146;2022-12-11T12:10:18;10.47;;;6.17;;
7511;SDS011;9999;48.780;9.146;2022-12-11T12:12:52;7.97;;;5.67;;
7511;SDS011;9999;48.780;9.146;2022-12-11T12:15:27;8.73;;;6.47;;
7511;SDS011;9999;48.780;9.146;2022-12-11T12:18:02;16.70;;;7.80;;
7511;SDS011;9999;48.780;9.146;2022-12-11T12:20:39;9.93;;;5.20;;
7511;SDS011;9999;48.780;9.146;2022-12-11T12:23:21;9.70;;;5.87;;
7511;SDS011;9999;48.780;9.146;2022-12-11T12:26:00;9.30;;;5.30;;
7511;SDS011;9999;48.780;9.146;2022-12-11T12:28:36;7.50;;;5.23;;
7511;SDS011;9999;48.780;9.146;2022-12-11T12:31:16;12.87;;;7.87;;
7511;SDS011;9999;48.780;9.146;2022-12-11T12:34:04;7.50;;;5.43;;
7511;SDS011;9999;48.780;9.146;2022-12-11T12:36:41;5.73;;;4.53;;
7511;SDS011;9999;48.780;9.146;2022-12-11T12:39:19;10.03;;;5.80;;
7511;SDS011;9999;48.780;9.146;2022-12-11T12:41:54;7.57;;;5.30;;
7511;SDS011;9999;48.780;9.146;2022-12-11T12:44:28;8.63;;;5.40;;
7511;SDS011;9999;48.780;9.146;2022-12-11T12:47:03;13.90;;;6.63;;
7511;SDS011;9999;48.780;9.146;2022-12-11T12:49:39;8.67;;;6.00;;
7511;SDS011;9999;48.780;9.146;2022-12-11T12:52:10;13.03;;;5.80;;
7511;SDS011;9999;48.780;9.146;2022-12-11T12:54:43;14.27;;;7.43;;
7511;SDS011;9999;48.780;9.146;2022-12-11T12:57:33;14.00;;;6.80;;
7511;SDS011;9999;48.780;9.146;2022-12-11T13:00:02;14.67;;;6.50;;
7511;SDS011;9999;48.780;9.146;2022-12-11T13:02:29;12.87;;;6.03;;
7511;SDS011;9999;48.780;9.146;2022-12-11T13:04:58;8.90;;;6.13;;
7511;SDS011;9999;48.780;9.146;2022-12-11T13:07:28;8.40;;;4.70;;
7511;SDS011;9999;48.780;9.146;2022-12-11T13:09:59;8.90;;;5.40;;
7511;SDS011;9999;48.780;9.146;2022-12-11T13:15:31;10.30;;;6.50;;
7511;SDS011;9999;48.780;9.146;2022-12-11T13:18:01;9.73;;;5.17;;
7511;SDS011;9999;48.780;9.146;2022-12-11T13:20:30;8.90;;;6.03;;
7511;SDS011;9999;48.780;9.146;2022-12-11T13:23:08;11.33;;;5.50;;
7511;SDS011;9999;48.780;9.146;2022-12-11T13:25:49;13.80;;;5.53;;
7511;SDS011;9999;48.780;9.146;2022-12-11T13:28:22;17.93;;;7.13;;
7511;SDS011;9999;48.780;9.146;2022-12-11T13:30:58;8.73;;;6.20;;
7511;SDS011;9999;48.780;9.146;2022-12-11T13:33:28;9.80;;;6.30;;
7511;SDS011;9999;48.780;9.146;2022-12-11T13:36:03;9.77;;;5.60;;
7511;SDS011;9999;48.780;9.146;2022-12-11T13:38:45;14.23;;;6.40;;
7511;SDS011;9999;48.780;9.146;2022-12-11T13:41:15;9.47;;;5.70;;
7511;SDS011;9999;48.780;9.146;2022-12-11T13:43:44;8.90;;;5.57;;
7511;SDS011;9999;48.780;9.146;2022-12-11T13:46:13;13.87;;;5.17;;
7511;SDS011;9999;48.780;9.146;2022-12-11T13:48:48;10.37;;;6.30;;
7511;SDS011;9999;48.780;9.146;2022-12-11T13:51:20;7.43;;;6.33;;
7511;SDS011;9999;48.780;9.146;2022-12-11T13:53:48;9.43;;;5.87;;
7511;SDS011;9999;48.780;9.146;2022-12-11T13:56:29;8.40;;;5.63;;
7511;SDS011;9999;48.780;9.146;2022-12-11T13:58:55;13.50;;;7.00;;
7511;SDS011;9999;48.780;9.146;2022-12-11T14:01:23;13.27;;;7.67;;
7511;SDS011;9999;48.780;9.146;2022-12-11T14:03:53;9.77;;;7.60;;
7511;SDS011;9999;48.780;9.146;2022-12-11T14:06:23;11.10;;;6.37;;
7511;SDS011;9999;48.780;9.146;2022-12-11T14:08:52;13.20;;;6.80;;
7511;SDS011;9999;48.780;9.146;2022-12-11T14:11:22;12.50;;;6.50;;
7511;SDS011;9999;48.780;9.146;2022-12-11T14:13:53;11.70;;;7.00;;
7511;SDS011;9999;48.780;9.146;2022-12-11T14:16:23;12.37;;;6.80;;
7511;SDS011;9999;48.780;9.146;2022-12-11T14:18:51;12.50;;;7.37;;
7511;SDS011;9999;48.780;9.146;2022-12-11T14:21:20;12.43;;;6.07;;
7511;SDS011;9999;48.780;9.146;2022-12-11T14:23:51;17.57;;;7.53;;
7511;SDS011;9999;48.780;9.146;2022-12-11T14:26:19;13.93;;;8.47;;
7511;SDS011;9999;48.780;9.146;2022-12-11T14:28:47;14.83;;;7.50;;
7511;SDS011;9999;48.780;9.146;2022-12-11T14:31:17;12.93;;;7.53;;
7511;SDS011;9999;48.780;9.146;2022-12-11T14:33:50;14.80;;;8.03;;
7511;SDS011;9999;48.780;9.146;2022-12-11T14:36:19;12.47;;;6.63;;
7511;SDS011;9999;48.780;9.146;2022-12-11T14:38:48;12.50;;;7.23;;
7511;SDS011;9999;48.780;9.146;2022-12-11T14:41:21;9.27;;;6.00;;
7511;SDS011;9999;48.780;9.146;2022-12-11T14:43:55;12.67;;;6.80;;
7511;SDS011;9999;48.780;9.146;2022-12-11T14:46:27;9.83;;;6.13;;
7511;SDS011;9999;48.780;9.146;2022-12-11T14:49:02;10.57;;;5.33;;
7511;SDS011;9999;48.780;9.146;2022-12-11T14:51:37;13.77;;;6.27;;
7511;SDS011;9999;48.780;9.146;2022-12-11T14:54:06;16.10;;;8.20;;
7511;SDS011;9999;48.780;9.146;2022-12-11T14:56:42;14.93;;;8.70;;
7511;SDS011;9999;48.780;9.146;2022-12-11T14:59:15;16.30;;;7.10;;
7511;SDS011;9999;48.780;9.146;2022-12-11T15:01:57;10.70;;;7.43;;
7511;SDS011;9999;48.780;9.146;2022-12-11T15:04:28;11.33;;;6.23;;
7511;SDS011;9999;48.780;9.146;2022-12-11T15:06:57;11.90;;;5.57;;
7511;SDS011;9999;48.780;9.146;2022-12-11T15:09:25;11.23;;;6.87;;
7511;SDS011;9999;48.780;9.146;2022-12-11T15:11:54;9.07;;;6.07;;
7511;SDS011;9999;48.780;9.146;2022-12-11T15:14:23;11.07;;;6.23;;
7511;SDS011;9999;48.780;9.146;2022-12-11T15:16:52;12.17;;;6.30;;
7511;SDS011;9999;48.780;9.146;2022-12-11T15:19:24;10.83;;;6.83;;
7511;SDS011;9999;48.780;9.146;2022-12-11T15:21:54;13.80;;;6.80;;
7511;SDS011;9999;48.780;9.146;2022-12-11T15:24:29;10.77;;;5.17;;
7511;SDS011;9999;48.780;9.146;2022-12-11T15:27:00;11.43;;;6.27;;
7511;SDS011;9999;48.780;9.146;2022-12-11T15:29:29;17.53;;;7.33;;
7511;SDS011;9999;48.780;9.146;2022-12-11T15:31:59;8.97;;;6.67;;